Time;durP1;ratioP1;P1;durP2;ratioP2;P2;SDS_P1;SDS_P2;PMS_P1;PMS_P2;Temp;Humidity;BMP_temperature;BMP_pressure;BME280_temperature;BME280_humidity;BME280_pressure;Samples;Min_cycle;Max_cycle;Signal;HPM_P1;HPM_P2
2024/04/17 00:01:01;;;;;;;0.40;0.40;;;;;;;5.28;100.00;98578.88;5326630;26;20024;-60
2024/04/17 00:03:31;;;;;;;0.50;0.50;;;;;;;5.43;100.00;98591.78;5320934;26;20001;-61
2024/04/17 00:06:02;;;;;;;0.40;0.40;;;;;;;5.39;100.00;98582.63;5325267;26;20004;-60
2024/04/17 00:08:29;;;;;;;0.40;0.40;;;;;;;5.38;100.00;98586.31;5322659;26;20612;-60
2024/04/17 00:11:00;;;;;;;0.40;0.40;;;;;;;5.27;100.00;98582.59;5319950;26;20001;-60
2024/04/17 00:13:28;;;;;;;0.50;0.50;;;;;;;5.21;100.00;98578.16;5326142;26;20394;-59
2024/04/17 00:16:00;;;;;;;0.50;0.50;;;;;;;5.37;100.00;98592.69;5319675;26;20032;-59
2024/04/17 00:18:32;;;;;;;0.40;0.40;;;;;;;5.21;100.00;98590.63;5319312;26;20009;-60
2024/04/17 00:21:02;;;;;;;0.40;0.40;;;;;;;5.33;100.00;98584.34;5321664;26;20008;-60
2024/04/17 00:23:32;;;;;;;0.40;0.40;;;;;;;5.34;100.00;98587.78;5325579;26;20008;-59
2024/04/17 00:26:02;;;;;;;0.30;0.30;;;;;;;5.39;100.00;98591.41;5323452;26;20008;-60
2024/04/17 00:28:31;;;;;;;0.40;0.40;;;;;;;5.47;100.00;98590.28;5315529;26;20454;-57
2024/04/17 00:31:01;;;;;;;0.40;0.40;;;;;;;5.45;100.00;98594.22;5326074;26;19996;-60
2024/04/17 00:33:31;;;;;;;;;;;;;;;5.43;100.00;98590.97;5320828;26;20001;-59
2024/04/17 00:36:01;;;;;;;0.40;0.40;;;;;;;5.38;100.00;98592.44;5293277;26;19939;-60
2024/04/17 00:38:29;;;;;;;0.45;0.45;;;;;;;5.36;100.00;98597.16;5289976;26;20511;-60
2024/04/17 00:41:04;;;;;;;0.30;0.30;;;;;;;5.40;100.00;98595.69;5294109;26;20046;-59
2024/04/17 00:43:33;;;;;;;0.40;0.40;;;;;;;5.34;100.00;98601.91;5283762;26;20088;-59
2024/04/17 00:46:03;;;;;;;0.40;0.40;;;;;;;5.39;100.00;98596.75;5292230;26;20013;-59
2024/04/17 00:48:33;;;;;;;;;;;;;;;5.37;100.00;98598.00;5291945;26;20080;-58
2024/04/17 00:51:04;;;;;;;0.40;0.40;;;;;;;5.39;100.00;98598.56;5288633;26;19954;-58
2024/04/17 00:53:32;;;;;;;0.50;0.50;;;;;;;5.38;100.00;98594.28;5284724;26;21093;-58
2024/04/17 00:56:02;;;;;;;0.40;0.40;;;;;;;5.47;100.00;98597.47;5312975;26;20494;-58
2024/04/17 00:58:30;;;;;;;0.35;0.35;;;;;;;5.40;100.00;98594.88;5285377;26;20017;-59
2024/04/17 01:01:02;;;;;;;0.30;0.30;;;;;;;5.44;100.00;98603.22;5320899;26;20017;-58
2024/04/17 01:03:30;;;;;;;0.40;0.40;;;;;;;5.50;100.00;98605.78;5284660;26;19997;-58
2024/04/17 01:06:02;;;;;;;0.30;0.30;;;;;;;5.53;100.00;98608.00;5289274;26;20016;-59
2024/04/17 01:08:30;;;;;;;0.30;0.30;;;;;;;5.37;100.00;98606.78;5292303;26;20006;-58
2024/04/17 01:11:01;;;;;;;0.40;0.40;;;;;;;5.46;100.00;98603.81;5281913;26;20497;-59
2024/04/17 01:13:29;;;;;;;0.40;0.40;;;;;;;5.40;100.00;98600.19;5292616;26;20081;-59
2024/04/17 01:15:59;;;;;;;0.50;0.50;;;;;;;5.37;100.00;98598.00;5288521;26;20001;-59
2024/04/17 01:18:26;;;;;;;0.40;0.40;;;;;;;5.37;100.00;98596.16;5285255;26;20007;-58
2024/04/17 01:20:57;;;;;;;0.40;0.40;;;;;;;5.37;100.00;98601.47;5296256;26;20001;-58
2024/04/17 01:23:27;;;;;;;;;;;;;;;5.35;100.00;98602.72;5290612;26;20002;-58
2024/04/17 01:26:02;;;;;;;0.43;0.43;;;;;;;5.39;100.00;98599.41;5285187;26;19933;-58
2024/04/17 01:28:30;;;;;;;0.32;0.32;;;;;;;5.44;100.00;98605.88;5287511;26;20531;-58
2024/04/17 01:31:01;;;;;;;0.40;0.40;;;;;;;5.36;100.00;98605.13;5292759;26;20535;-58
2024/04/17 01:33:28;;;;;;;0.40;0.40;;;;;;;5.39;100.00;98607.38;5294181;26;20021;-58
2024/04/17 01:36:01;;;;;;;0.50;0.50;;;;;;;5.38;100.00;98600.41;5328029;26;20076;-58
2024/04/17 01:38:28;;;;;;;0.40;0.40;;;;;;;5.36;100.00;98607.78;5331053;26;20472;-58
2024/04/17 01:41:01;;;;;;;0.40;0.40;;;;;;;5.43;100.00;98609.56;5320077;26;20074;-58
2024/04/17 01:43:30;;;;;;;0.30;0.30;;;;;;;5.38;100.00;98610.25;5324454;26;20056;-58
2024/04/17 01:46:02;;;;;;;0.40;0.40;;;;;;;5.41;100.00;98610.59;5331857;26;21166;-58
2024/04/17 01:48:30;;;;;;;0.30;0.30;;;;;;;5.35;100.00;98606.19;5328751;26;20788;-58
2024/04/17 01:51:00;;;;;;;0.43;0.43;;;;;;;5.31;100.00;98610.31;5300430;26;20001;-58
2024/04/17 01:53:27;;;;;;;0.30;0.30;;;;;;;5.32;100.00;98611.94;5318389;26;20001;-58
2024/04/17 01:56:03;;;;;;;0.38;0.38;;;;;;;5.37;100.00;98611.28;5328135;26;20005;-58
2024/04/17 01:58:30;;;;;;;0.43;0.43;;;;;;;5.30;100.00;98603.38;5328068;26;20005;-58
2024/04/17 02:01:06;;;;;;;0.35;0.35;;;;;;;5.48;100.00;98605.19;5327839;26;20001;-58
2024/04/17 02:03:35;;;;;;;0.40;0.40;;;;;;;5.48;100.00;98605.19;5323610;26;20024;-58
2024/04/17 02:06:06;;;;;;;0.40;0.40;;;;;;;5.43;100.00;98612.22;5331162;26;20546;-58
2024/04/17 02:08:34;;;;;;;0.40;0.40;;;;;;;5.54;100.00;98614.13;5323898;26;20459;-58
2024/04/17 02:11:07;;;;;;;0.45;0.45;;;;;;;5.39;100.00;98611.84;5326789;26;20391;-59
2024/04/17 02:13:34;;;;;;;0.30;0.30;;;;;;;5.55;100.00;98605.13;5321595;26;19997;-58
2024/04/17 02:16:05;;;;;;;0.40;0.40;;;;;;;5.51;100.00;98611.91;5331108;26;20016;-58
2024/04/17 02:18:34;;;;;;;0.40;0.40;;;;;;;5.39;100.00;98612.69;5331957;26;20015;-58
2024/04/17 02:21:04;;;;;;;0.40;0.40;;;;;;;5.40;100.00;98606.31;5330247;26;20001;-58
2024/04/17 02:23:32;;;;;;;0.35;0.35;;;;;;;5.26;100.00;98612.03;5318025;26;20016;-58
2024/04/17 02:26:08;;;;;;;0.40;0.40;;;;;;;5.16;100.00;98613.34;5327854;26;20002;-58
2024/04/17 02:28:36;;;;;;;0.40;0.40;;;;;;;5.03;100.00;98612.69;5314262;26;20034;-58
2024/04/17 02:31:06;;;;;;;0.32;0.32;;;;;;;5.05;100.00;98615.94;5322587;26;20016;-59
2024/04/17 02:33:34;;;;;;;0.50;0.50;;;;;;;5.00;100.00;98624.56;5324806;26;20002;-59
2024/04/17 02:36:07;;;;;;;0.40;0.40;;;;;;;5.00;100.00;98619.28;5330880;26;20467;-58
2024/04/17 02:38:35;;;;;;;0.50;0.50;;;;;;;4.96;100.00;98618.88;5329424;26;20016;-58
2024/04/17 02:41:08;;;;;;;0.30;0.30;;;;;;;5.02;100.00;98617.22;5326356;26;20075;-58
2024/04/17 02:43:36;;;;;;;0.50;0.50;;;;;;;4.89;100.00;98612.84;5324781;26;20002;-58
2024/04/17 02:46:06;;;;;;;0.40;0.40;;;;;;;4.90;100.00;98621.63;5327201;26;20072;-62
2024/04/17 02:48:34;;;;;;;0.50;0.50;;;;;;;4.84;100.00;98615.34;5324850;26;20099;-58
2024/04/17 02:51:04;;;;;;;0.40;0.40;;;;;;;4.96;100.00;98621.53;5330454;26;20004;-58
2024/04/17 02:53:32;;;;;;;0.50;0.50;;;;;;;4.82;100.00;98621.88;5321619;26;20001;-58
2024/04/17 02:56:03;;;;;;;0.40;0.40;;;;;;;4.83;100.00;98621.69;5324036;26;20327;-58
2024/04/17 02:58:33;;;;;;;0.50;0.50;;;;;;;4.80;100.00;98619.47;5326978;26;20014;-58
2024/04/17 03:01:12;;;;;;;0.50;0.50;;;;;;;4.80;100.00;98619.47;5330444;26;20008;-58
2024/04/17 03:03:41;;;;;;;0.52;0.52;;;;;;;4.85;100.00;98624.13;5323961;26;20012;-58
2024/04/17 03:06:12;;;;;;;0.50;0.50;;;;;;;4.88;100.00;98626.34;5318062;26;20009;-58
2024/04/17 03:08:39;;;;;;;;;;;;;;;4.89;100.00;98623.47;5316196;26;20083;-58
2024/04/17 03:11:09;;;;;;;0.50;0.50;;;;;;;4.84;100.00;98630.47;5326407;26;19934;-58
2024/04/17 03:13:40;;;;;;;0.50;0.50;;;;;;;4.96;100.00;98626.84;5327178;26;20004;-59
2024/04/17 03:16:10;;;;;;;;;;;;;;;4.91;100.00;98629.34;5312311;26;20080;-58
2024/04/17 03:18:38;;;;;;;0.50;0.50;;;;;;;4.91;100.00;98626.69;5322543;26;20291;-58
2024/04/17 03:21:08;;;;;;;0.40;0.40;;;;;;;4.84;100.00;98622.50;5318676;26;20027;-58
2024/04/17 03:23:35;;;;;;;0.45;0.45;;;;;;;4.88;100.00;98631.66;5330259;26;19997;-58
2024/04/17 03:26:06;;;;;;;0.40;0.40;;;;;;;4.89;100.00;98633.25;5316523;26;20366;-58
2024/04/17 03:28:36;;;;;;;0.40;0.40;;;;;;;4.93;100.00;98643.22;5327166;26;20028;-58
2024/04/17 03:31:09;;;;;;;0.43;0.43;;;;;;;4.83;100.00;98642.94;5321680;26;20017;-58
2024/04/17 03:33:37;;;;;;;0.40;0.40;;;;;;;4.87;100.00;98641.47;5320480;26;20029;-58
2024/04/17 03:36:08;;;;;;;0.40;0.40;;;;;;;4.73;100.00;98645.28;5325523;26;20016;-58
2024/04/17 03:38:38;;;;;;;0.40;0.40;;;;;;;4.78;100.00;98649.94;5328952;26;20535;-58
2024/04/17 03:41:08;;;;;;;0.40;0.40;;;;;;;4.76;100.00;98644.81;5323144;26;20790;-58
2024/04/17 03:43:39;;;;;;;0.40;0.40;;;;;;;4.60;100.00;98650.72;5323809;26;20010;-58
2024/04/17 03:46:11;;;;;;;0.38;0.38;;;;;;;4.60;100.00;98651.53;5323629;26;20000;-58
2024/04/17 03:48:42;;;;;;;0.47;0.47;;;;;;;4.52;100.00;98655.25;5324111;26;20006;-58
2024/04/17 03:51:13;;;;;;;0.50;0.50;;;;;;;4.39;100.00;98658.00;5319570;26;20005;-58
2024/04/17 03:53:40;;;;;;;0.47;0.47;;;;;;;4.28;100.00;98654.22;5327533;26;20323;-58
2024/04/17 03:56:11;;;;;;;0.40;0.40;;;;;;;4.32;100.00;98667.88;5328264;26;20010;-58
2024/04/17 03:58:39;;;;;;;0.47;0.47;;;;;;;4.31;100.00;98671.53;5347343;26;20340;-58
2024/04/17 04:01:11;;;;;;;0.40;0.40;;;;;;;4.23;100.00;98661.19;5323998;26;20050;-58
2024/04/17 04:03:42;;;;;;;0.50;0.50;;;;;;;4.27;100.00;98665.06;5328899;26;20001;-58
2024/04/17 04:06:13;;;;;;;0.40;0.40;;;;;;;4.25;100.00;98664.47;5327242;26;20021;-58
2024/04/17 04:08:40;;;;;;;0.50;0.50;;;;;;;4.10;100.00;98662.91;5306598;26;20279;-58
2024/04/17 04:11:11;;;;;;;0.50;0.50;;;;;;;4.13;100.00;98666.16;5323965;26;20000;-59
2024/04/17 04:13:41;;;;;;;0.43;0.43;;;;;;;4.22;100.00;98667.50;5320009;26;20327;-58
2024/04/17 04:16:14;;;;;;;;;;;;;;;4.18;100.00;98669.00;5328260;26;20060;-59
2024/04/17 04:18:44;;;;;;;0.50;0.50;;;;;;;4.19;100.00;98675.91;5324391;26;20746;-59
2024/04/17 04:21:15;;;;;;;0.50;0.50;;;;;;;4.04;100.00;98678.84;5326183;26;20020;-58
2024/04/17 04:23:42;;;;;;;0.47;0.47;;;;;;;4.05;100.00;98678.66;5313614;26;20002;-59
2024/04/17 04:26:13;;;;;;;0.50;0.50;;;;;;;4.10;100.00;98681.47;5311860;26;20001;-59
2024/04/17 04:28:41;;;;;;;0.47;0.47;;;;;;;4.11;100.00;98679.63;5318813;26;20005;-59
2024/04/17 04:31:15;;;;;;;0.50;0.50;;;;;;;4.07;100.00;98684.56;5334541;26;20048;-58
2024/04/17 04:33:42;;;;;;;0.50;0.50;;;;;;;3.91;100.00;98684.25;5314142;26;20460;-58
2024/04/17 04:36:13;;;;;;;0.50;0.50;;;;;;;4.00;100.00;98693.59;5324180;26;20468;-58
2024/04/17 04:38:42;;;;;;;0.50;0.50;;;;;;;3.98;100.00;98695.63;5325719;26;20009;-58
2024/04/17 04:41:12;;;;;;;0.40;0.40;;;;;;;4.01;100.00;98695.19;5328065;26;20013;-59
2024/04/17 04:43:40;;;;;;;0.50;0.50;;;;;;;3.90;100.00;98696.69;5346399;26;20751;-58
2024/04/17 04:46:10;;;;;;;0.45;0.45;;;;;;;3.95;100.00;98702.19;5322413;26;20037;-59
2024/04/17 04:48:40;;;;;;;0.60;0.60;;;;;;;3.92;100.00;98702.59;5322928;26;20020;-58
2024/04/17 04:51:11;;;;;;;0.50;0.50;;;;;;;3.97;100.00;98713.38;5320838;26;20086;-58
2024/04/17 04:53:39;;;;;;;0.40;0.40;;;;;;;3.84;100.00;98702.84;5332954;26;20071;-58
2024/04/17 04:56:09;;;;;;;0.50;0.50;;;;;;;3.89;100.00;98713.63;5329225;26;20049;-59
2024/04/17 04:58:37;;;;;;;;;;;;;;;3.96;100.00;98711.75;5326586;26;20005;-59
2024/04/17 05:01:07;;;;;;;0.50;0.50;;;;;;;4.11;100.00;98712.25;5331778;26;19937;-59
2024/04/17 05:03:35;;;;;;;0.50;0.50;;;;;;;4.15;100.00;98715.31;5317961;26;19998;-58
2024/04/17 05:06:08;;;;;;;0.40;0.40;;;;;;;4.27;100.00;98720.78;5328614;26;20001;-59
2024/04/17 05:08:36;;;;;;;0.50;0.50;;;;;;;4.30;100.00;98715.84;5327780;26;20005;-59
2024/04/17 05:11:12;;;;;;;0.40;0.40;;;;;;;4.21;100.00;98718.94;5320031;26;20423;-59
2024/04/17 05:13:39;;;;;;;0.40;0.40;;;;;;;4.25;100.00;98725.47;5318216;26;20082;-59
2024/04/17 05:16:10;;;;;;;0.50;0.50;;;;;;;4.51;100.00;98724.47;5326669;26;20451;-59
2024/04/17 05:18:37;;;;;;;;;;;;;;;4.23;100.00;98727.53;5328005;26;20384;-59
2024/04/17 05:21:10;;;;;;;0.50;0.50;;;;;;;4.32;100.00;98734.22;5319483;26;19926;-59
2024/04/17 05:23:38;;;;;;;0.60;0.60;;;;;;;4.26;100.00;98735.03;5313622;26;20012;-59
2024/04/17 05:26:08;;;;;;;0.57;0.57;;;;;;;4.51;100.00;98735.88;5320959;26;20082;-59
2024/04/17 05:28:36;;;;;;;0.47;0.47;;;;;;;4.76;100.00;98732.44;5323049;26;20015;-59
2024/04/17 05:31:09;;;;;;;0.47;0.47;;;;;;;4.86;100.00;98740.72;5324865;26;20001;-59
2024/04/17 05:33:37;;;;;;;0.55;0.55;;;;;;;5.66;100.00;98749.78;5323327;26;20053;-59
2024/04/17 05:36:15;;;;;;;0.50;0.50;;;;;;;5.98;100.00;98753.09;5324310;26;20464;-59
2024/04/17 05:38:43;;;;;;;0.40;0.40;;;;;;;5.68;100.00;98756.50;5330897;26;20012;-59
2024/04/17 05:41:15;;;;;;;0.40;0.40;;;;;;;5.36;100.00;98756.63;5328909;26;20476;-59
2024/04/17 05:43:42;;;;;;;0.50;0.50;;;;;;;5.26;100.00;98753.66;5324956;26;20009;-59
2024/04/17 05:46:15;;;;;;;0.50;0.50;;;;;;;5.33;100.00;98750.94;5325073;26;20366;-59
2024/04/17 05:48:42;;;;;;;0.40;0.40;;;;;;;5.95;100.00;98753.56;5330188;26;20062;-59
2024/04/17 05:51:17;;;;;;;0.60;0.60;;;;;;;6.94;100.00;98763.78;5320253;26;20010;-59
2024/04/17 05:53:45;;;;;;;0.40;0.40;;;;;;;8.17;100.00;98756.59;5314282;26;20000;-59
2024/04/17 05:56:15;;;;;;;0.30;0.30;;;;;;;7.02;100.00;98758.16;5327351;26;20421;-60
2024/04/17 05:58:43;;;;;;;0.30;0.30;;;;;;;6.88;100.00;98765.53;5328291;26;20302;-59
2024/04/17 06:01:13;;;;;;;0.30;0.30;;;;;;;6.58;100.00;98762.94;5326819;26;20009;-60
2024/04/17 06:03:42;;;;;;;0.40;0.40;;;;;;;7.59;100.00;98769.03;5313884;26;20001;-60
2024/04/17 06:06:20;;;;;;;0.30;0.30;;;;;;;6.14;100.00;98767.63;5320909;26;20002;-59
2024/04/17 06:08:48;;;;;;;0.40;0.40;;;;;;;6.35;100.00;98766.34;5324881;26;20039;-59
2024/04/17 06:11:22;;;;;;;0.30;0.30;;;;;;;6.12;100.00;98775.03;5324335;26;21184;-60
2024/04/17 06:13:50;;;;;;;0.40;0.40;;;;;;;6.19;100.00;98768.59;5316007;26;20000;-61
2024/04/17 06:16:20;;;;;;;0.40;0.40;;;;;;;6.04;100.00;98778.78;5328497;26;20019;-58
2024/04/17 06:18:51;;;;;;;0.43;0.43;;;;;;;5.87;100.00;98777.78;5324630;26;20012;-57
2024/04/17 06:21:22;;;;;;;0.30;0.30;;;;;;;5.63;100.00;98767.78;5315786;26;20017;-61
2024/04/17 06:23:54;;;;;;;;;;;;;;;5.94;100.00;98775.84;5325456;26;20468;-60
2024/04/17 06:26:22;;;;;;;0.40;0.40;;;;;;;5.59;100.00;98779.06;5326173;26;19937;-60
2024/04/17 06:28:52;;;;;;;0.32;0.32;;;;;;;5.45;100.00;98773.09;5328258;26;20019;-60
2024/04/17 06:31:21;;;;;;;0.43;0.43;;;;;;;5.52;100.00;98781.03;5327574;26;20005;-60
2024/04/17 06:33:51;;;;;;;0.45;0.45;;;;;;;5.51;100.00;98780.19;5318792;26;20010;-60
2024/04/17 06:36:22;;;;;;;0.50;0.50;;;;;;;5.45;100.00;98777.63;5322097;26;20079;-60
2024/04/17 06:38:52;;;;;;;0.30;0.30;;;;;;;5.81;100.00;98779.44;5327589;26;20019;-60
2024/04/17 06:41:20;;;;;;;0.40;0.40;;;;;;;5.76;100.00;98777.47;5326316;26;20021;-60
2024/04/17 06:43:51;;;;;;;0.40;0.40;;;;;;;6.07;100.00;98780.22;5325096;26;20037;-60
2024/04/17 06:46:20;;;;;;;0.30;0.30;;;;;;;5.96;100.00;98777.25;5327307;26;19997;-60
2024/04/17 06:48:53;;;;;;;0.40;0.40;;;;;;;6.21;100.00;98777.13;5322078;26;20005;-60
2024/04/17 06:51:24;;;;;;;0.40;0.40;;;;;;;6.47;100.00;98783.16;5329293;26;20009;-60
2024/04/17 06:53:56;;;;;;;;;;;;;;;6.79;100.00;98786.38;5329383;26;20016;-60
2024/04/17 06:56:26;;;;;;;0.40;0.40;;;;;;;6.78;100.00;98789.25;5323655;26;19981;-60
2024/04/17 06:58:56;;;;;;;0.50;0.50;;;;;;;6.91;100.00;98795.22;5330386;26;20003;-59
2024/04/17 07:01:24;;;;;;;0.40;0.40;;;;;;;6.84;100.00;98791.00;5330407;26;20015;-60
2024/04/17 07:03:55;;;;;;;0.38;0.38;;;;;;;7.04;100.00;98799.50;5324193;26;20029;-60
2024/04/17 07:06:25;;;;;;;0.40;0.40;;;;;;;6.96;100.00;98797.16;5326191;26;20011;-60
2024/04/17 07:08:56;;;;;;;;;;;;;;;7.15;100.00;98789.91;5330359;26;20021;-60
2024/04/17 07:11:24;;;;;;;0.40;0.40;;;;;;;7.06;100.00;98794.78;5349606;26;19933;-60
2024/04/17 07:13:54;;;;;;;0.40;0.40;;;;;;;7.24;100.00;98793.84;5318591;26;20024;-59
2024/04/17 07:16:22;;;;;;;;;;;;;;;6.90;100.00;98792.75;5324036;26;19997;-60
2024/04/17 07:18:53;;;;;;;0.40;0.40;;;;;;;6.89;100.00;98791.97;5325833;26;20357;-60
2024/04/17 07:21:21;;;;;;;0.30;0.30;;;;;;;7.24;100.00;98793.03;5328902;26;20044;-60
2024/04/17 07:23:53;;;;;;;0.55;0.55;;;;;;;8.52;100.00;98798.38;5322572;26;20237;-57
2024/04/17 07:26:21;;;;;;;0.30;0.30;;;;;;;8.04;96.50;98791.53;5306938;26;20016;-57
2024/04/17 07:28:51;;;;;;;0.43;0.43;;;;;;;8.46;97.22;98796.66;5327455;26;20001;-57
2024/04/17 07:31:19;;;;;;;0.50;0.50;;;;;;;9.09;92.99;98795.63;5297312;26;19997;-58
2024/04/17 07:33:49;;;;;;;0.40;0.40;;;;;;;9.74;88.41;98791.47;5321925;26;20016;-60
2024/04/17 07:36:17;;;;;;;0.40;0.40;;;;;;;10.17;86.48;98791.75;5314671;26;20719;-57
2024/04/17 07:38:47;;;;;;;0.30;0.30;;;;;;;10.75;79.49;98799.06;5328931;26;20004;-57
2024/04/17 07:41:18;;;;;;;0.30;0.30;;;;;;;11.06;82.63;98806.56;5328665;26;20009;-57
2024/04/17 07:43:48;;;;;;;;;;;;;;;10.91;78.63;98794.66;5330184;26;20018;-58
2024/04/17 07:46:15;;;;;;;0.30;0.30;;;;;;;9.95;84.39;98800.56;5327172;26;19953;-57
2024/04/17 07:48:45;;;;;;;0.35;0.35;;;;;;;10.10;82.61;98795.41;5325139;26;20033;-57
2024/04/17 07:51:13;;;;;;;;;;;;;;;9.94;84.85;98801.63;5321139;26;20012;-58
2024/04/17 07:53:43;;;;;;;0.30;0.30;;;;;;;10.25;85.85;98802.00;5323912;26;20388;-57
2024/04/17 07:56:10;;;;;;;0.20;0.20;;;;;;;9.98;79.09;98800.06;5325631;26;20004;-57
2024/04/17 07:58:43;;;;;;;0.30;0.30;;;;;;;9.25;82.89;98797.47;5323039;26;20735;-58
2024/04/17 08:01:11;;;;;;;0.40;0.40;;;;;;;10.30;81.56;98799.41;5324275;26;20083;-58
2024/04/17 08:03:41;;;;;;;0.30;0.30;;;;;;;10.30;77.94;98802.09;5324236;26;20713;-58
2024/04/17 08:06:09;;;;;;;0.40;0.40;;;;;;;11.80;72.70;98803.84;5326043;26;20023;-57
2024/04/17 08:08:40;;;;;;;0.30;0.30;;;;;;;11.60;69.95;98804.53;5325756;26;19997;-60
2024/04/17 08:11:08;;;;;;;0.30;0.30;;;;;;;11.44;68.28;98803.66;5325858;26;20032;-57
2024/04/17 08:13:39;;;;;;;0.30;0.30;;;;;;;12.14;71.42;98797.34;5319436;26;20070;-57
2024/04/17 08:16:09;;;;;;;0.20;0.20;;;;;;;11.95;65.99;98805.03;5327834;26;20049;-58
2024/04/17 08:18:39;;;;;;;;;;;;;;;10.13;75.55;98792.25;5324983;26;20019;-57
2024/04/17 08:21:08;;;;;;;0.13;0.13;;;;;;;10.05;78.34;98800.69;5320524;26;19925;-57
2024/04/17 08:23:38;;;;;;;0.20;0.20;;;;;;;9.13;78.74;98799.41;5322413;26;20101;-57
2024/04/17 08:26:06;;;;;;;0.20;0.20;;;;;;;8.52;82.58;98803.72;5328010;26;20015;-57
2024/04/17 08:28:36;;;;;;;0.22;0.22;;;;;;;8.17;86.10;98802.78;5323332;26;20001;-57
2024/04/17 08:31:04;;;;;;;0.20;0.20;;;;;;;7.97;91.82;98797.84;5326465;26;19997;-57
2024/04/17 08:33:37;;;;;;;0.30;0.30;;;;;;;7.57;91.46;98798.59;5325879;26;19997;-57
2024/04/17 08:36:06;;;;;;;0.20;0.20;;;;;;;7.41;97.41;98793.94;5315947;26;20018;-57
2024/04/17 08:38:36;;;;;;;0.20;0.20;;;;;;;7.74;98.81;98803.22;5323187;26;20738;-57
2024/04/17 08:41:04;;;;;;;0.30;0.30;;;;;;;7.94;96.97;98811.66;5325272;26;20926;-59
2024/04/17 08:43:34;;;;;;;0.20;0.20;;;;;;;7.66;96.68;98793.72;5323071;26;20000;-60
2024/04/17 08:46:01;;;;;;;0.30;0.30;;;;;;;7.78;98.51;98791.03;5332917;26;20523;-57
2024/04/17 08:48:31;;;;;;;0.20;0.20;;;;;;;7.55;92.50;98786.53;5326939;26;20004;-58
2024/04/17 08:51:02;;;;;;;0.35;0.35;;;;;;;7.84;90.36;98791.94;5323105;26;20001;-57
2024/04/17 08:53:32;;;;;;;0.30;0.30;;;;;;;7.83;90.62;98796.47;5322447;26;20013;-58
2024/04/17 08:55:59;;;;;;;0.30;0.30;;;;;;;8.27;91.46;98796.00;5325159;26;20116;-58
2024/04/17 08:58:29;;;;;;;0.28;0.28;;;;;;;8.16;89.14;98800.31;5321339;26;20023;-58
2024/04/17 09:00:57;;;;;;;0.25;0.25;;;;;;;8.28;95.03;98803.78;5316632;26;20436;-58
2024/04/17 09:03:27;;;;;;;0.30;0.30;;;;;;;8.34;93.58;98802.03;5324849;26;19997;-58
2024/04/17 09:05:54;;;;;;;0.35;0.35;;;;;;;8.66;95.26;98815.72;5320301;26;20006;-58
2024/04/17 09:08:28;;;;;;;0.30;0.30;;;;;;;8.21;94.77;98821.78;5317839;26;20511;-58
2024/04/17 09:10:55;;;;;;;0.30;0.30;;;;;;;7.39;99.20;98846.72;5321622;26;20004;-58
2024/04/17 09:13:25;;;;;;;0.30;0.30;;;;;;;5.58;100.00;98846.59;5325445;26;19997;-57
2024/04/17 09:15:53;;;;;;;0.40;0.40;;;;;;;5.38;100.00;98850.22;5321871;26;20488;-57
2024/04/17 09:18:26;;;;;;;0.50;0.50;;;;;;;5.28;100.00;98849.09;5314848;26;20001;-58
2024/04/17 09:20:54;;;;;;;0.30;0.30;;;;;;;5.15;100.00;98847.38;5324579;26;20008;-57
2024/04/17 09:23:24;;;;;;;0.38;0.38;;;;;;;4.65;100.00;98856.06;5317504;26;20001;-58
2024/04/17 09:25:55;;;;;;;0.50;0.50;;;;;;;4.71;100.00;98852.56;5317807;26;20645;-57
2024/04/17 09:28:25;;;;;;;0.40;0.40;;;;;;;4.91;100.00;98844.47;5316738;26;20001;-57
2024/04/17 09:30:52;;;;;;;0.30;0.30;;;;;;;5.19;100.00;98845.88;5328474;26;20013;-58
2024/04/17 09:33:22;;;;;;;0.50;0.50;;;;;;;5.04;100.00;98846.25;5308583;26;20001;-58
2024/04/17 09:35:50;;;;;;;0.40;0.40;;;;;;;4.81;100.00;98848.63;5317191;26;20010;-58
2024/04/17 09:38:22;;;;;;;0.40;0.40;;;;;;;4.71;100.00;98844.59;5323034;26;20328;-58
2024/04/17 09:40:49;;;;;;;0.40;0.40;;;;;;;4.85;100.00;98845.34;5325553;26;20004;-58
2024/04/17 09:43:25;;;;;;;0.45;0.45;;;;;;;4.83;100.00;98836.75;5326812;26;20005;-58
2024/04/17 09:45:57;;;;;;;0.40;0.40;;;;;;;4.96;100.00;98835.84;5307366;26;20016;-58
2024/04/17 09:48:27;;;;;;;;;;;;;;;4.75;100.00;98834.38;5329470;26;20033;-59
2024/04/17 09:51:00;;;;;;;0.43;0.43;;;;;;;4.69;100.00;98835.22;5326393;26;19926;-59
2024/04/17 09:53:34;;;;;;;0.50;0.50;;;;;;;4.96;100.00;98826.03;5314268;26;20060;-59
2024/04/17 09:56:03;;;;;;;0.40;0.40;;;;;;;5.49;100.00;98829.28;5329791;26;20016;-59
2024/04/17 09:58:36;;;;;;;0.47;0.47;;;;;;;5.70;100.00;98828.88;5327330;26;20082;-59
2024/04/17 10:01:06;;;;;;;0.47;0.47;;;;;;;5.70;100.00;98826.22;5329548;26;20024;-59
2024/04/17 10:03:36;;;;;;;0.40;0.40;;;;;;;5.65;100.00;98834.03;5328112;26;20015;-60
2024/04/17 10:06:04;;;;;;;0.40;0.40;;;;;;;5.90;100.00;98830.53;5355523;26;20410;-59
2024/04/17 10:08:35;;;;;;;0.40;0.40;;;;;;;6.01;100.00;98832.47;5326729;26;21817;-59
2024/04/17 10:11:03;;;;;;;0.43;0.43;;;;;;;5.91;100.00;98832.13;5326706;26;20015;-59
2024/04/17 10:13:38;;;;;;;0.40;0.40;;;;;;;6.13;100.00;98830.69;5325065;26;20000;-59
2024/04/17 10:16:08;;;;;;;0.40;0.40;;;;;;;6.17;100.00;98831.88;5345405;26;20884;-59
2024/04/17 10:18:38;;;;;;;0.32;0.32;;;;;;;5.80;100.00;98825.72;5318244;26;20017;-59
2024/04/17 10:21:06;;;;;;;0.30;0.30;;;;;;;5.69;100.00;98818.44;5327885;26;20014;-59
2024/04/17 10:23:36;;;;;;;0.40;0.40;;;;;;;6.12;100.00;98823.75;5347165;26;20690;-59
2024/04/17 10:26:04;;;;;;;0.50;0.50;;;;;;;6.05;100.00;98820.34;5326184;26;20494;-59
2024/04/17 10:28:36;;;;;;;0.40;0.40;;;;;;;6.26;100.00;98814.56;5306124;26;20005;-59
2024/04/17 10:31:04;;;;;;;0.30;0.30;;;;;;;6.01;100.00;98824.47;5329305;26;20398;-59
2024/04/17 10:33:36;;;;;;;0.30;0.30;;;;;;;5.49;100.00;98823.97;5336250;26;20001;-59
2024/04/17 10:36:05;;;;;;;0.40;0.40;;;;;;;5.56;100.00;98814.09;5328678;26;20333;-59
2024/04/17 10:38:35;;;;;;;0.30;0.30;;;;;;;5.86;100.00;98808.84;5326874;26;20451;-59
2024/04/17 10:41:04;;;;;;;0.40;0.40;;;;;;;6.51;100.00;98816.25;5311292;26;20079;-59
2024/04/17 10:43:37;;;;;;;0.30;0.30;;;;;;;7.59;100.00;98816.19;5321747;26;20013;-59
2024/04/17 10:46:05;;;;;;;0.40;0.40;;;;;;;7.60;100.00;98817.84;5323612;26;20007;-59
2024/04/17 10:48:44;;;;;;;0.30;0.30;;;;;;;6.81;100.00;98812.78;5324714;26;20001;-59
2024/04/17 10:51:12;;;;;;;0.40;0.40;;;;;;;6.82;100.00;98807.22;5327502;26;20945;-59
2024/04/17 10:53:43;;;;;;;0.30;0.30;;;;;;;7.83;100.00;98807.13;5329238;26;20041;-59
2024/04/17 10:56:10;;;;;;;0.47;0.47;;;;;;;8.18;100.00;98809.72;5327378;26;20011;-59
2024/04/17 10:58:44;;;;;;;0.30;0.30;;;;;;;8.45;98.53;98809.19;5328059;26;20009;-60
2024/04/17 11:01:13;;;;;;;0.30;0.30;;;;;;;8.04;98.67;98802.22;5327129;26;20028;-60
2024/04/17 11:03:43;;;;;;;0.35;0.35;;;;;;;9.32;89.43;98805.31;5328611;26;20004;-60
2024/04/17 11:06:11;;;;;;;0.40;0.40;;;;;;;9.72;79.22;98802.41;5320525;26;20331;-59
2024/04/17 11:08:42;;;;;;;0.32;0.32;;;;;;;10.02;80.91;98784.34;5327394;26;20001;-60
2024/04/17 11:11:16;;;;;;;0.30;0.30;;;;;;;9.63;82.21;98782.47;5329656;26;20005;-60
2024/04/17 11:13:47;;;;;;;0.30;0.30;;;;;;;9.49;82.88;98791.94;5324453;26;20447;-59
2024/04/17 11:16:17;;;;;;;0.30;0.30;;;;;;;8.61;91.54;98783.56;5328285;26;20001;-59
2024/04/17 11:18:45;;;;;;;0.30;0.30;;;;;;;8.89;96.14;98781.94;5329333;26;20020;-59
2024/04/17 11:21:15;;;;;;;0.30;0.30;;;;;;;8.18;96.76;98780.34;5326130;26;20082;-59
2024/04/17 11:23:43;;;;;;;0.30;0.30;;;;;;;9.11;96.87;98785.50;5328222;26;20738;-59
2024/04/17 11:26:14;;;;;;;0.30;0.30;;;;;;;9.47;99.95;98778.00;5321442;26;20031;-60
2024/04/17 11:28:41;;;;;;;;;;;;;;;9.68;95.79;98779.06;5312406;26;20005;-60
2024/04/17 11:31:14;;;;;;;0.22;0.22;;;;;;;9.70;92.75;98775.09;5322053;26;19934;-59
2024/04/17 11:33:44;;;;;;;0.30;0.30;;;;;;;8.83;91.94;98773.00;5318263;26;20012;-59
2024/04/17 11:36:15;;;;;;;0.20;0.20;;;;;;;8.67;96.16;98784.50;5326099;26;20015;-59
2024/04/17 11:38:43;;;;;;;0.20;0.20;;;;;;;8.49;97.69;98783.66;5319150;26;20312;-59
2024/04/17 11:41:13;;;;;;;0.20;0.20;;;;;;;8.84;99.86;98779.97;5323900;26;20001;-59
2024/04/17 11:43:41;;;;;;;0.30;0.30;;;;;;;8.71;95.71;98772.25;5323577;26;20448;-59
2024/04/17 11:46:15;;;;;;;0.20;0.20;;;;;;;8.93;94.46;98770.47;5332692;26;20095;-59
2024/04/17 11:48:42;;;;;;;0.30;0.30;;;;;;;9.11;95.47;98772.13;5319976;26;20019;-59
2024/04/17 11:51:12;;;;;;;0.30;0.30;;;;;;;8.88;100.00;98764.25;5326151;26;20125;-59